Airfield :







YOU CAN JOIN US ON...

 
LOGIN :

Register | Disclaimer

   EN    FR    IT 

 









Legend :    VFR   Marginal VFR   IFR   Intensive IFR   Very Intensive IFR
Visi :
Ceiling :
>= 8 km
>= 3000ft
5 to 8 km
1000 to 3000 ft
1500m to 5 km
500 to 1000 ft
800 to 1500m
200 to 500 ft
< 800m
< 200 ft
Symbols :   Thunderstorms  Fog  Heavy snow  Heavy precipitations  Wind > 20 kt






- Airport Elevation : 92 ft
- IATA code : YZX


CYZX - CFB Greenwood

CURRENT METAR :
  • 150100Z 20011G24KT 10SM -RA SCT018 OVC035 17/15 A2936 RMK SC3SC5 SLP945

EXPIRED METARs :
  • 150000Z 19020G32KT 15SM -RA SCT028 OVC045 17/15 A2940 RMK SC3SC5 SLP957
  • 142300Z 17017G26KT 6SM -RA SCT028 BKN047 OVC075 15/15 A2943 RMK CF3CF2AC3 PRESFR SLP967

TAF TAF CYZX
Valid from the 15 at 00:00 until the 16 at 00:00 UTC


142307Z 1500/1524 17017G27KT 6SM BR SCT015 BKN025 OVC040
TEMPO 1500/1509 3SM -SHRA BR BKN012
FM150900 20020G30KT P6SM BKN020 BKN220
FM151500 23025G40KT P6SM BKN025
TEMPO 1515/1524 P6SM -SHRA
BECMG 1520/1522 26025G40KT RMK NXT FCST BY 150600Z



MET'MAP, your aeronautical weather chart ! - Copyright ORBIFLY December 2007 - Disclaimer

ORBIFLY MET'MAP TEAM :

Programming & Development : Alexandra Zaïnal
Concept & original design : Baudouin d'Aumeries
Assistance for programming : Marc-Olivier Méhu
Technical & hardware support : Manuel Goepfert

Contact : metmap@orbifly.com




SOURCES & CREDITS :

   NOAA